sensor_id;sensor_type;location;lat;lon;timestamp;P1;durP1;ratioP1;P2;durP2;ratioP2
64199;SDS011;50516;52.272;5.136;2023-08-24T00:01:12;10.52;;;4.72;;
64199;SDS011;50516;52.272;5.136;2023-08-24T00:03:38;11.77;;;4.55;;
64199;SDS011;50516;52.272;5.136;2023-08-24T00:06:04;9.35;;;4.10;;
64199;SDS011;50516;52.272;5.136;2023-08-24T00:08:31;9.52;;;3.88;;
64199;SDS011;50516;52.272;5.136;2023-08-24T00:10:56;13.50;;;6.30;;
64199;SDS011;50516;52.272;5.136;2023-08-24T00:13:21;8.18;;;3.83;;
64199;SDS011;50516;52.272;5.136;2023-08-24T00:15:47;9.02;;;3.38;;
64199;SDS011;50516;52.272;5.136;2023-08-24T00:18:12;7.75;;;3.80;;
64199;SDS011;50516;52.272;5.136;2023-08-24T00:20:38;9.55;;;4.45;;
64199;SDS011;50516;52.272;5.136;2023-08-24T00:23:03;8.65;;;4.40;;
64199;SDS011;50516;52.272;5.136;2023-08-24T00:25:29;8.55;;;4.25;;
64199;SDS011;50516;52.272;5.136;2023-08-24T00:27:55;7.63;;;3.50;;
64199;SDS011;50516;52.272;5.136;2023-08-24T00:30:21;10.48;;;4.50;;
64199;SDS011;50516;52.272;5.136;2023-08-24T00:32:46;9.45;;;4.25;;
64199;SDS011;50516;52.272;5.136;2023-08-24T00:35:12;7.00;;;4.28;;
64199;SDS011;50516;52.272;5.136;2023-08-24T00:37:38;11.80;;;5.15;;
64199;SDS011;50516;52.272;5.136;2023-08-24T00:40:04;7.95;;;4.75;;
64199;SDS011;50516;52.272;5.136;2023-08-24T00:42:36;8.25;;;4.55;;
64199;SDS011;50516;52.272;5.136;2023-08-24T00:45:04;11.43;;;4.80;;
64199;SDS011;50516;52.272;5.136;2023-08-24T00:47:29;8.48;;;4.35;;
64199;SDS011;50516;52.272;5.136;2023-08-24T00:49:55;8.32;;;4.13;;
64199;SDS011;50516;52.272;5.136;2023-08-24T00:52:20;6.68;;;4.47;;
64199;SDS011;50516;52.272;5.136;2023-08-24T00:54:46;9.77;;;4.40;;
64199;SDS011;50516;52.272;5.136;2023-08-24T00:57:12;7.95;;;3.85;;
64199;SDS011;50516;52.272;5.136;2023-08-24T00:59:38;12.05;;;5.28;;
64199;SDS011;50516;52.272;5.136;2023-08-24T01:02:04;10.18;;;4.43;;
64199;SDS011;50516;52.272;5.136;2023-08-24T01:04:30;11.85;;;4.20;;
64199;SDS011;50516;52.272;5.136;2023-08-24T01:06:55;13.60;;;4.72;;
64199;SDS011;50516;52.272;5.136;2023-08-24T01:09:21;10.18;;;5.05;;
64199;SDS011;50516;52.272;5.136;2023-08-24T01:14:39;8.55;;;3.47;;
64199;SDS011;50516;52.272;5.136;2023-08-24T01:17:10;13.98;;;4.68;;
64199;SDS011;50516;52.272;5.136;2023-08-24T01:19:42;9.68;;;4.63;;
64199;SDS011;50516;52.272;5.136;2023-08-24T01:22:20;11.52;;;4.97;;
64199;SDS011;50516;52.272;5.136;2023-08-24T01:27:35;12.13;;;4.65;;
64199;SDS011;50516;52.272;5.136;2023-08-24T01:30:02;10.43;;;4.80;;
64199;SDS011;50516;52.272;5.136;2023-08-24T01:32:32;7.70;;;4.57;;
64199;SDS011;50516;52.272;5.136;2023-08-24T01:35:07;11.52;;;4.93;;
64199;SDS011;50516;52.272;5.136;2023-08-24T01:37:34;9.38;;;5.60;;
64199;SDS011;50516;52.272;5.136;2023-08-24T01:40:07;10.18;;;4.95;;
64199;SDS011;50516;52.272;5.136;2023-08-24T01:42:51;11.00;;;4.53;;
64199;SDS011;50516;52.272;5.136;2023-08-24T01:45:22;8.70;;;4.50;;
64199;SDS011;50516;52.272;5.136;2023-08-24T01:47:51;7.68;;;4.50;;
64199;SDS011;50516;52.272;5.136;2023-08-24T01:50:19;9.95;;;5.82;;
64199;SDS011;50516;52.272;5.136;2023-08-24T01:52:45;9.43;;;5.43;;
64199;SDS011;50516;52.272;5.136;2023-08-24T01:55:10;10.25;;;6.07;;
64199;SDS011;50516;52.272;5.136;2023-08-24T01:57:37;15.57;;;5.97;;
64199;SDS011;50516;52.272;5.136;2023-08-24T02:00:02;12.93;;;5.65;;
64199;SDS011;50516;52.272;5.136;2023-08-24T02:02:31;8.60;;;5.15;;
64199;SDS011;50516;52.272;5.136;2023-08-24T02:04:58;11.60;;;6.85;;
64199;SDS011;50516;52.272;5.136;2023-08-24T02:07:23;10.57;;;5.97;;
64199;SDS011;50516;52.272;5.136;2023-08-24T02:09:48;12.20;;;6.38;;
64199;SDS011;50516;52.272;5.136;2023-08-24T02:12:14;8.40;;;5.70;;
64199;SDS011;50516;52.272;5.136;2023-08-24T02:14:39;15.02;;;7.72;;
64199;SDS011;50516;52.272;5.136;2023-08-24T02:17:04;10.00;;;6.97;;
64199;SDS011;50516;52.272;5.136;2023-08-24T02:19:30;8.93;;;6.47;;
64199;SDS011;50516;52.272;5.136;2023-08-24T02:21:55;13.85;;;6.53;;
64199;SDS011;50516;52.272;5.136;2023-08-24T02:24:21;13.60;;;7.57;;
64199;SDS011;50516;52.272;5.136;2023-08-24T02:26:46;13.73;;;7.85;;
64199;SDS011;50516;52.272;5.136;2023-08-24T02:29:11;14.48;;;8.75;;
64199;SDS011;50516;52.272;5.136;2023-08-24T02:31:37;11.80;;;7.95;;
64199;SDS011;50516;52.272;5.136;2023-08-24T02:34:02;14.38;;;7.93;;
64199;SDS011;50516;52.272;5.136;2023-08-24T02:36:27;9.90;;;6.90;;
64199;SDS011;50516;52.272;5.136;2023-08-24T02:38:53;14.02;;;7.90;;
64199;SDS011;50516;52.272;5.136;2023-08-24T02:41:19;11.43;;;8.27;;
64199;SDS011;50516;52.272;5.136;2023-08-24T02:43:44;14.35;;;8.40;;
64199;SDS011;50516;52.272;5.136;2023-08-24T02:46:09;14.43;;;7.53;;
64199;SDS011;50516;52.272;5.136;2023-08-24T02:48:35;11.50;;;7.55;;
64199;SDS011;50516;52.272;5.136;2023-08-24T02:51:01;10.48;;;7.53;;
64199;SDS011;50516;52.272;5.136;2023-08-24T02:53:28;8.57;;;7.00;;
64199;SDS011;50516;52.272;5.136;2023-08-24T02:55:54;9.27;;;6.97;;
64199;SDS011;50516;52.272;5.136;2023-08-24T02:58:20;13.68;;;8.02;;
64199;SDS011;50516;52.272;5.136;2023-08-24T03:00:46;12.82;;;9.00;;
64199;SDS011;50516;52.272;5.136;2023-08-24T03:03:12;13.35;;;8.90;;
64199;SDS011;50516;52.272;5.136;2023-08-24T03:05:39;10.63;;;8.23;;
64199;SDS011;50516;52.272;5.136;2023-08-24T03:08:05;13.35;;;8.10;;
64199;SDS011;50516;52.272;5.136;2023-08-24T03:10:31;17.77;;;8.77;;
64199;SDS011;50516;52.272;5.136;2023-08-24T03:12:59;16.38;;;8.43;;
64199;SDS011;50516;52.272;5.136;2023-08-24T03:15:24;14.27;;;7.93;;
64199;SDS011;50516;52.272;5.136;2023-08-24T03:17:50;11.85;;;7.95;;
64199;SDS011;50516;52.272;5.136;2023-08-24T03:20:17;15.38;;;8.68;;
64199;SDS011;50516;52.272;5.136;2023-08-24T03:22:43;15.20;;;8.75;;
64199;SDS011;50516;52.272;5.136;2023-08-24T03:25:08;12.25;;;8.02;;
64199;SDS011;50516;52.272;5.136;2023-08-24T03:27:34;16.88;;;8.50;;
64199;SDS011;50516;52.272;5.136;2023-08-24T03:29:59;12.20;;;7.32;;
64199;SDS011;50516;52.272;5.136;2023-08-24T03:32:24;15.57;;;9.10;;
64199;SDS011;50516;52.272;5.136;2023-08-24T03:34:50;18.33;;;8.98;;
64199;SDS011;50516;52.272;5.136;2023-08-24T03:37:15;11.55;;;8.05;;
64199;SDS011;50516;52.272;5.136;2023-08-24T03:39:40;10.40;;;8.23;;
64199;SDS011;50516;52.272;5.136;2023-08-24T03:42:06;15.38;;;8.13;;
64199;SDS011;50516;52.272;5.136;2023-08-24T03:44:31;11.88;;;7.47;;
64199;SDS011;50516;52.272;5.136;2023-08-24T03:46:57;11.82;;;8.73;;
64199;SDS011;50516;52.272;5.136;2023-08-24T03:49:22;14.57;;;8.98;;
64199;SDS011;50516;52.272;5.136;2023-08-24T03:51:48;14.75;;;8.65;;
64199;SDS011;50516;52.272;5.136;2023-08-24T03:54:13;14.15;;;9.02;;
64199;SDS011;50516;52.272;5.136;2023-08-24T03:56:39;17.88;;;9.50;;
64199;SDS011;50516;52.272;5.136;2023-08-24T03:59:04;14.02;;;9.75;;
64199;SDS011;50516;52.272;5.136;2023-08-24T04:01:30;16.75;;;10.13;;
64199;SDS011;50516;52.272;5.136;2023-08-24T04:03:55;17.00;;;10.25;;
64199;SDS011;50516;52.272;5.136;2023-08-24T04:06:20;14.73;;;9.27;;
64199;SDS011;50516;52.272;5.136;2023-08-24T04:08:46;13.05;;;10.18;;
64199;SDS011;50516;52.272;5.136;2023-08-24T04:11:11;21.70;;;10.95;;
64199;SDS011;50516;52.272;5.136;2023-08-24T04:13:36;16.55;;;9.82;;
64199;SDS011;50516;52.272;5.136;2023-08-24T04:16:02;16.77;;;8.63;;
64199;SDS011;50516;52.272;5.136;2023-08-24T04:18:28;14.50;;;9.68;;
64199;SDS011;50516;52.272;5.136;2023-08-24T04:20:54;15.43;;;10.73;;
64199;SDS011;50516;52.272;5.136;2023-08-24T04:23:23;15.10;;;9.02;;
64199;SDS011;50516;52.272;5.136;2023-08-24T04:25:50;16.15;;;9.68;;
64199;SDS011;50516;52.272;5.136;2023-08-24T04:28:16;13.40;;;9.55;;
64199;SDS011;50516;52.272;5.136;2023-08-24T04:30:48;11.52;;;8.85;;
64199;SDS011;50516;52.272;5.136;2023-08-24T04:33:15;13.43;;;9.80;;
64199;SDS011;50516;52.272;5.136;2023-08-24T04:35:40;14.27;;;9.57;;
64199;SDS011;50516;52.272;5.136;2023-08-24T04:38:05;16.48;;;9.25;;
64199;SDS011;50516;52.272;5.136;2023-08-24T04:40:44;15.73;;;9.77;;
64199;SDS011;50516;52.272;5.136;2023-08-24T04:43:17;16.63;;;10.55;;
64199;SDS011;50516;52.272;5.136;2023-08-24T04:45:46;14.63;;;8.70;;
64199;SDS011;50516;52.272;5.136;2023-08-24T04:48:22;19.95;;;9.27;;
64199;SDS011;50516;52.272;5.136;2023-08-24T04:50:48;14.55;;;8.05;;
64199;SDS011;50516;52.272;5.136;2023-08-24T04:53:14;16.02;;;9.85;;
64199;SDS011;50516;52.272;5.136;2023-08-24T04:55:43;11.68;;;9.15;;
64199;SDS011;50516;52.272;5.136;2023-08-24T04:58:08;16.45;;;9.80;;
64199;SDS011;50516;52.272;5.136;2023-08-24T05:00:34;12.73;;;9.48;;
64199;SDS011;50516;52.272;5.136;2023-08-24T05:03:03;14.38;;;8.27;;
64199;SDS011;50516;52.272;5.136;2023-08-24T05:05:29;11.73;;;8.48;;
64199;SDS011;50516;52.272;5.136;2023-08-24T05:07:56;12.32;;;8.07;;
64199;SDS011;50516;52.272;5.136;2023-08-24T05:10:21;12.85;;;8.57;;
64199;SDS011;50516;52.272;5.136;2023-08-24T05:12:47;13.05;;;8.68;;
64199;SDS011;50516;52.272;5.136;2023-08-24T05:15:12;15.80;;;9.23;;
64199;SDS011;50516;52.272;5.136;2023-08-24T05:17:38;14.82;;;8.88;;
64199;SDS011;50516;52.272;5.136;2023-08-24T05:20:04;16.73;;;8.80;;
64199;SDS011;50516;52.272;5.136;2023-08-24T05:22:30;13.20;;;8.73;;
64199;SDS011;50516;52.272;5.136;2023-08-24T05:24:55;15.32;;;7.82;;
64199;SDS011;50516;52.272;5.136;2023-08-24T05:27:21;19.00;;;8.65;;
64199;SDS011;50516;52.272;5.136;2023-08-24T05:29:46;12.43;;;8.07;;
64199;SDS011;50516;52.272;5.136;2023-08-24T05:32:11;14.65;;;7.47;;
64199;SDS011;50516;52.272;5.136;2023-08-24T05:34:37;10.77;;;7.78;;
64199;SDS011;50516;52.272;5.136;2023-08-24T05:37:02;14.68;;;7.32;;
64199;SDS011;50516;52.272;5.136;2023-08-24T05:39:27;12.88;;;7.18;;
64199;SDS011;50516;52.272;5.136;2023-08-24T05:41:52;16.38;;;7.88;;
64199;SDS011;50516;52.272;5.136;2023-08-24T05:44:18;12.05;;;7.38;;
64199;SDS011;50516;52.272;5.136;2023-08-24T05:46:45;13.00;;;7.70;;
64199;SDS011;50516;52.272;5.136;2023-08-24T05:49:11;13.23;;;7.30;;
64199;SDS011;50516;52.272;5.136;2023-08-24T05:51:36;13.85;;;7.55;;
64199;SDS011;50516;52.272;5.136;2023-08-24T05:54:01;13.60;;;7.57;;
64199;SDS011;50516;52.272;5.136;2023-08-24T05:56:27;18.10;;;7.97;;
64199;SDS011;50516;52.272;5.136;2023-08-24T05:58:53;15.43;;;8.20;;
64199;SDS011;50516;52.272;5.136;2023-08-24T06:01:19;13.98;;;7.43;;
64199;SDS011;50516;52.272;5.136;2023-08-24T06:03:44;10.02;;;7.03;;
64199;SDS011;50516;52.272;5.136;2023-08-24T06:06:10;15.95;;;7.32;;
64199;SDS011;50516;52.272;5.136;2023-08-24T06:08:35;11.43;;;7.20;;
64199;SDS011;50516;52.272;5.136;2023-08-24T06:11:00;12.43;;;7.03;;
64199;SDS011;50516;52.272;5.136;2023-08-24T06:13:26;23.38;;;8.27;;
64199;SDS011;50516;52.272;5.136;2023-08-24T06:15:51;11.70;;;7.50;;
64199;SDS011;50516;52.272;5.136;2023-08-24T06:18:19;13.23;;;7.55;;
64199;SDS011;50516;52.272;5.136;2023-08-24T06:20:44;12.35;;;7.88;;
64199;SDS011;50516;52.272;5.136;2023-08-24T06:23:10;14.82;;;8.13;;
64199;SDS011;50516;52.272;5.136;2023-08-24T06:25:36;12.35;;;7.35;;
64199;SDS011;50516;52.272;5.136;2023-08-24T06:28:01;13.85;;;7.78;;
64199;SDS011;50516;52.272;5.136;2023-08-24T06:30:29;14.05;;;8.00;;
64199;SDS011;50516;52.272;5.136;2023-08-24T06:32:57;11.27;;;7.10;;
64199;SDS011;50516;52.272;5.136;2023-08-24T06:35:23;13.93;;;7.90;;
64199;SDS011;50516;52.272;5.136;2023-08-24T06:37:49;13.15;;;7.93;;
64199;SDS011;50516;52.272;5.136;2023-08-24T06:40:14;14.05;;;9.23;;
64199;SDS011;50516;52.272;5.136;2023-08-24T06:42:39;14.38;;;7.20;;
64199;SDS011;50516;52.272;5.136;2023-08-24T06:45:05;9.73;;;6.93;;
64199;SDS011;50516;52.272;5.136;2023-08-24T06:47:31;12.70;;;7.65;;
64199;SDS011;50516;52.272;5.136;2023-08-24T06:49:57;15.02;;;7.97;;
64199;SDS011;50516;52.272;5.136;2023-08-24T06:52:22;12.63;;;7.13;;
64199;SDS011;50516;52.272;5.136;2023-08-24T06:54:47;12.75;;;6.80;;
64199;SDS011;50516;52.272;5.136;2023-08-24T06:57:18;9.52;;;6.50;;
64199;SDS011;50516;52.272;5.136;2023-08-24T06:59:43;11.80;;;7.15;;
64199;SDS011;50516;52.272;5.136;2023-08-24T07:02:08;12.73;;;7.53;;
64199;SDS011;50516;52.272;5.136;2023-08-24T07:04:34;10.57;;;7.15;;
64199;SDS011;50516;52.272;5.136;2023-08-24T07:06:59;14.30;;;7.45;;
64199;SDS011;50516;52.272;5.136;2023-08-24T07:09:25;12.60;;;6.65;;
64199;SDS011;50516;52.272;5.136;2023-08-24T07:11:50;17.25;;;8.77;;
64199;SDS011;50516;52.272;5.136;2023-08-24T07:14:16;18.75;;;7.93;;
64199;SDS011;50516;52.272;5.136;2023-08-24T07:16:41;11.30;;;7.03;;
64199;SDS011;50516;52.272;5.136;2023-08-24T07:19:07;13.80;;;8.85;;
64199;SDS011;50516;52.272;5.136;2023-08-24T07:21:33;11.85;;;7.13;;
64199;SDS011;50516;52.272;5.136;2023-08-24T07:23:59;17.15;;;8.77;;
64199;SDS011;50516;52.272;5.136;2023-08-24T07:26:24;10.98;;;7.68;;
64199;SDS011;50516;52.272;5.136;2023-08-24T07:28:50;13.70;;;8.10;;
64199;SDS011;50516;52.272;5.136;2023-08-24T07:31:16;13.35;;;7.65;;
64199;SDS011;50516;52.272;5.136;2023-08-24T07:33:41;11.27;;;7.20;;
64199;SDS011;50516;52.272;5.136;2023-08-24T07:36:10;11.43;;;6.88;;
64199;SDS011;50516;52.272;5.136;2023-08-24T07:38:35;14.75;;;8.65;;
64199;SDS011;50516;52.272;5.136;2023-08-24T07:41:01;11.05;;;6.63;;
64199;SDS011;50516;52.272;5.136;2023-08-24T07:43:26;11.93;;;7.75;;
64199;SDS011;50516;52.272;5.136;2023-08-24T07:45:51;12.80;;;8.75;;
64199;SDS011;50516;52.272;5.136;2023-08-24T07:48:17;12.07;;;7.22;;
64199;SDS011;50516;52.272;5.136;2023-08-24T07:50:43;12.88;;;8.50;;
64199;SDS011;50516;52.272;5.136;2023-08-24T07:53:08;12.82;;;9.27;;
64199;SDS011;50516;52.272;5.136;2023-08-24T07:55:33;12.63;;;8.00;;
64199;SDS011;50516;52.272;5.136;2023-08-24T07:57:59;12.15;;;8.38;;
64199;SDS011;50516;52.272;5.136;2023-08-24T08:00:24;13.90;;;9.68;;
64199;SDS011;50516;52.272;5.136;2023-08-24T08:02:50;13.38;;;8.10;;
64199;SDS011;50516;52.272;5.136;2023-08-24T08:05:16;10.10;;;7.05;;
64199;SDS011;50516;52.272;5.136;2023-08-24T08:07:47;12.20;;;8.38;;
64199;SDS011;50516;52.272;5.136;2023-08-24T08:10:13;10.10;;;6.78;;
64199;SDS011;50516;52.272;5.136;2023-08-24T08:12:38;12.43;;;7.47;;
64199;SDS011;50516;52.272;5.136;2023-08-24T08:15:04;12.52;;;7.63;;
64199;SDS011;50516;52.272;5.136;2023-08-24T08:17:29;18.48;;;8.30;;
64199;SDS011;50516;52.272;5.136;2023-08-24T08:19:55;12.30;;;7.55;;
64199;SDS011;50516;52.272;5.136;2023-08-24T08:22:21;10.25;;;5.93;;
64199;SDS011;50516;52.272;5.136;2023-08-24T08:24:46;14.73;;;8.30;;
64199;SDS011;50516;52.272;5.136;2023-08-24T08:27:12;11.45;;;8.23;;
64199;SDS011;50516;52.272;5.136;2023-08-24T08:29:37;18.48;;;8.73;;
64199;SDS011;50516;52.272;5.136;2023-08-24T08:32:03;9.20;;;6.30;;
64199;SDS011;50516;52.272;5.136;2023-08-24T08:34:30;14.35;;;8.75;;
64199;SDS011;50516;52.272;5.136;2023-08-24T08:36:55;13.23;;;7.00;;
64199;SDS011;50516;52.272;5.136;2023-08-24T08:39:22;11.98;;;7.43;;
64199;SDS011;50516;52.272;5.136;2023-08-24T08:41:47;14.45;;;8.60;;
64199;SDS011;50516;52.272;5.136;2023-08-24T08:44:14;17.80;;;7.70;;
64199;SDS011;50516;52.272;5.136;2023-08-24T08:46:41;10.63;;;8.18;;
64199;SDS011;50516;52.272;5.136;2023-08-24T08:49:07;13.63;;;7.63;;
64199;SDS011;50516;52.272;5.136;2023-08-24T08:51:35;15.13;;;8.13;;
64199;SDS011;50516;52.272;5.136;2023-08-24T08:54:01;8.90;;;6.13;;
64199;SDS011;50516;52.272;5.136;2023-08-24T08:56:28;14.80;;;7.35;;
64199;SDS011;50516;52.272;5.136;2023-08-24T08:58:54;16.55;;;8.10;;
64199;SDS011;50516;52.272;5.136;2023-08-24T09:01:21;13.65;;;9.68;;
64199;SDS011;50516;52.272;5.136;2023-08-24T09:03:48;10.90;;;7.35;;
64199;SDS011;50516;52.272;5.136;2023-08-24T09:06:13;14.43;;;7.50;;
64199;SDS011;50516;52.272;5.136;2023-08-24T09:08:39;15.65;;;8.10;;
64199;SDS011;50516;52.272;5.136;2023-08-24T09:11:04;14.77;;;8.88;;
64199;SDS011;50516;52.272;5.136;2023-08-24T09:13:33;13.68;;;7.68;;
64199;SDS011;50516;52.272;5.136;2023-08-24T09:16:07;12.82;;;8.80;;
64199;SDS011;50516;52.272;5.136;2023-08-24T09:18:34;12.93;;;6.03;;
64199;SDS011;50516;52.272;5.136;2023-08-24T09:21:07;13.35;;;8.07;;
64199;SDS011;50516;52.272;5.136;2023-08-24T09:23:34;12.23;;;7.60;;
64199;SDS011;50516;52.272;5.136;2023-08-24T09:25:59;12.90;;;7.82;;
64199;SDS011;50516;52.272;5.136;2023-08-24T09:28:24;9.35;;;5.97;;
64199;SDS011;50516;52.272;5.136;2023-08-24T09:30:52;13.23;;;8.60;;
64199;SDS011;50516;52.272;5.136;2023-08-24T09:33:20;10.50;;;6.50;;
64199;SDS011;50516;52.272;5.136;2023-08-24T09:35:51;14.57;;;7.75;;
64199;SDS011;50516;52.272;5.136;2023-08-24T09:38:23;10.50;;;6.45;;
64199;SDS011;50516;52.272;5.136;2023-08-24T09:40:52;16.15;;;6.80;;
64199;SDS011;50516;52.272;5.136;2023-08-24T09:43:19;13.32;;;6.85;;
64199;SDS011;50516;52.272;5.136;2023-08-24T09:45:49;12.55;;;7.07;;
64199;SDS011;50516;52.272;5.136;2023-08-24T09:48:18;11.48;;;6.78;;
64199;SDS011;50516;52.272;5.136;2023-08-24T09:50:44;9.75;;;6.03;;
64199;SDS011;50516;52.272;5.136;2023-08-24T09:53:14;10.95;;;6.35;;
64199;SDS011;50516;52.272;5.136;2023-08-24T09:58:24;12.93;;;6.50;;
64199;SDS011;50516;52.272;5.136;2023-08-24T10:00:51;13.07;;;7.80;;
64199;SDS011;50516;52.272;5.136;2023-08-24T10:03:20;10.63;;;5.90;;
64199;SDS011;50516;52.272;5.136;2023-08-24T10:05:50;10.02;;;6.13;;
64199;SDS011;50516;52.272;5.136;2023-08-24T10:08:21;9.48;;;5.60;;
64199;SDS011;50516;52.272;5.136;2023-08-24T10:10:52;10.02;;;6.50;;
64199;SDS011;50516;52.272;5.136;2023-08-24T10:13:32;15.90;;;7.72;;
64199;SDS011;50516;52.272;5.136;2023-08-24T10:18:32;11.52;;;6.15;;
64199;SDS011;50516;52.272;5.136;2023-08-24T10:20:58;13.35;;;6.47;;
64199;SDS011;50516;52.272;5.136;2023-08-24T10:23:25;16.15;;;6.18;;
64199;SDS011;50516;52.272;5.136;2023-08-24T10:25:54;17.02;;;6.20;;
64199;SDS011;50516;52.272;5.136;2023-08-24T10:28:20;9.57;;;5.38;;
64199;SDS011;50516;52.272;5.136;2023-08-24T10:30:45;11.95;;;6.68;;
64199;SDS011;50516;52.272;5.136;2023-08-24T10:33:13;7.22;;;5.22;;
64199;SDS011;50516;52.272;5.136;2023-08-24T10:35:39;12.90;;;7.03;;
64199;SDS011;50516;52.272;5.136;2023-08-24T10:38:05;14.13;;;6.82;;
64199;SDS011;50516;52.272;5.136;2023-08-24T10:40:31;12.77;;;7.60;;
64199;SDS011;50516;52.272;5.136;2023-08-24T10:42:58;15.07;;;6.40;;
64199;SDS011;50516;52.272;5.136;2023-08-24T10:45:27;13.73;;;6.68;;
64199;SDS011;50516;52.272;5.136;2023-08-24T10:48:23;16.07;;;5.87;;
64199;SDS011;50516;52.272;5.136;2023-08-24T10:51:34;12.68;;;7.63;;
64199;SDS011;50516;52.272;5.136;2023-08-24T10:53:55;12.57;;;7.95;;
64199;SDS011;50516;52.272;5.136;2023-08-24T10:56:29;11.00;;;7.07;;
64199;SDS011;50516;52.272;5.136;2023-08-24T10:59:14;11.70;;;6.30;;
64199;SDS011;50516;52.272;5.136;2023-08-24T11:02:01;11.93;;;6.32;;
64199;SDS011;50516;52.272;5.136;2023-08-24T11:04:26;16.90;;;6.65;;
64199;SDS011;50516;52.272;5.136;2023-08-24T11:06:56;11.30;;;7.88;;
64199;SDS011;50516;52.272;5.136;2023-08-24T11:09:23;12.85;;;7.80;;
64199;SDS011;50516;52.272;5.136;2023-08-24T11:11:59;10.98;;;6.85;;
64199;SDS011;50516;52.272;5.136;2023-08-24T11:14:26;13.05;;;7.78;;
64199;SDS011;50516;52.272;5.136;2023-08-24T11:16:56;11.75;;;7.75;;
64199;SDS011;50516;52.272;5.136;2023-08-24T11:19:23;9.10;;;6.47;;
64199;SDS011;50516;52.272;5.136;2023-08-24T11:21:50;14.18;;;9.70;;
64199;SDS011;50516;52.272;5.136;2023-08-24T11:24:16;12.32;;;9.15;;
64199;SDS011;50516;52.272;5.136;2023-08-24T11:26:42;9.13;;;6.22;;
64199;SDS011;50516;52.272;5.136;2023-08-24T11:29:09;12.10;;;9.30;;
64199;SDS011;50516;52.272;5.136;2023-08-24T11:31:38;14.30;;;10.18;;
64199;SDS011;50516;52.272;5.136;2023-08-24T11:34:04;15.93;;;10.23;;
64199;SDS011;50516;52.272;5.136;2023-08-24T11:36:33;13.38;;;9.57;;
64199;SDS011;50516;52.272;5.136;2023-08-24T11:39:06;22.02;;;11.68;;
64199;SDS011;50516;52.272;5.136;2023-08-24T11:41:31;17.65;;;11.35;;
64199;SDS011;50516;52.272;5.136;2023-08-24T11:44:00;16.42;;;11.75;;
64199;SDS011;50516;52.272;5.136;2023-08-24T11:46:27;16.73;;;11.80;;
64199;SDS011;50516;52.272;5.136;2023-08-24T11:48:53;19.88;;;13.10;;
64199;SDS011;50516;52.272;5.136;2023-08-24T11:51:19;16.83;;;11.93;;
64199;SDS011;50516;52.272;5.136;2023-08-24T11:53:44;15.07;;;10.85;;
64199;SDS011;50516;52.272;5.136;2023-08-24T11:56:12;18.98;;;13.85;;
64199;SDS011;50516;52.272;5.136;2023-08-24T11:58:38;18.75;;;13.27;;
64199;SDS011;50516;52.272;5.136;2023-08-24T12:01:05;15.48;;;11.35;;
64199;SDS011;50516;52.272;5.136;2023-08-24T12:03:31;16.05;;;14.20;;
64199;SDS011;50516;52.272;5.136;2023-08-24T12:06:02;15.68;;;11.73;;
64199;SDS011;50516;52.272;5.136;2023-08-24T12:08:36;16.92;;;13.15;;
64199;SDS011;50516;52.272;5.136;2023-08-24T12:11:03;17.20;;;11.77;;
64199;SDS011;50516;52.272;5.136;2023-08-24T12:13:32;17.02;;;10.52;;
64199;SDS011;50516;52.272;5.136;2023-08-24T12:15:58;19.40;;;13.15;;
64199;SDS011;50516;52.272;5.136;2023-08-24T12:18:25;16.23;;;13.43;;
64199;SDS011;50516;52.272;5.136;2023-08-24T12:20:51;18.13;;;14.63;;
64199;SDS011;50516;52.272;5.136;2023-08-24T12:23:16;12.75;;;10.57;;
64199;SDS011;50516;52.272;5.136;2023-08-24T12:25:42;20.25;;;14.05;;
64199;SDS011;50516;52.272;5.136;2023-08-24T12:30:47;15.80;;;12.85;;
64199;SDS011;50516;52.272;5.136;2023-08-24T12:33:25;22.17;;;15.27;;
64199;SDS011;50516;52.272;5.136;2023-08-24T12:35:51;15.13;;;11.70;;
64199;SDS011;50516;52.272;5.136;2023-08-24T12:38:18;15.60;;;12.70;;
64199;SDS011;50516;52.272;5.136;2023-08-24T12:40:44;15.85;;;13.48;;
64199;SDS011;50516;52.272;5.136;2023-08-24T12:43:10;18.30;;;13.05;;
64199;SDS011;50516;52.272;5.136;2023-08-24T12:45:35;17.00;;;12.20;;
64199;SDS011;50516;52.272;5.136;2023-08-24T12:48:02;18.48;;;12.95;;
64199;SDS011;50516;52.272;5.136;2023-08-24T12:50:29;16.60;;;12.40;;
64199;SDS011;50516;52.272;5.136;2023-08-24T12:52:54;19.20;;;13.18;;
64199;SDS011;50516;52.272;5.136;2023-08-24T12:55:24;18.45;;;12.07;;
64199;SDS011;50516;52.272;5.136;2023-08-24T12:57:49;18.25;;;12.07;;
64199;SDS011;50516;52.272;5.136;2023-08-24T13:00:15;17.17;;;12.10;;
64199;SDS011;50516;52.272;5.136;2023-08-24T13:02:40;17.80;;;10.30;;
64199;SDS011;50516;52.272;5.136;2023-08-24T13:05:06;19.52;;;13.48;;
64199;SDS011;50516;52.272;5.136;2023-08-24T13:07:31;16.17;;;12.93;;
64199;SDS011;50516;52.272;5.136;2023-08-24T13:09:57;18.75;;;13.15;;
64199;SDS011;50516;52.272;5.136;2023-08-24T13:12:22;15.07;;;12.80;;
64199;SDS011;50516;52.272;5.136;2023-08-24T13:14:49;14.80;;;9.27;;
64199;SDS011;50516;52.272;5.136;2023-08-24T13:17:14;15.48;;;12.63;;
64199;SDS011;50516;52.272;5.136;2023-08-24T13:19:40;14.45;;;11.65;;
64199;SDS011;50516;52.272;5.136;2023-08-24T13:22:05;16.70;;;11.30;;
64199;SDS011;50516;52.272;5.136;2023-08-24T13:24:30;16.52;;;12.13;;
64199;SDS011;50516;52.272;5.136;2023-08-24T13:26:56;19.55;;;12.48;;
64199;SDS011;50516;52.272;5.136;2023-08-24T13:29:21;12.98;;;11.00;;
64199;SDS011;50516;52.272;5.136;2023-08-24T13:31:46;15.55;;;11.63;;
64199;SDS011;50516;52.272;5.136;2023-08-24T13:34:12;20.98;;;13.27;;
64199;SDS011;50516;52.272;5.136;2023-08-24T13:36:38;14.73;;;10.20;;
64199;SDS011;50516;52.272;5.136;2023-08-24T13:39:03;16.33;;;10.00;;
64199;SDS011;50516;52.272;5.136;2023-08-24T13:41:29;14.80;;;11.07;;
64199;SDS011;50516;52.272;5.136;2023-08-24T13:43:55;13.43;;;10.27;;
64199;SDS011;50516;52.272;5.136;2023-08-24T13:46:20;13.13;;;10.63;;
64199;SDS011;50516;52.272;5.136;2023-08-24T13:48:45;15.25;;;9.25;;
64199;SDS011;50516;52.272;5.136;2023-08-24T13:51:11;16.02;;;9.02;;
64199;SDS011;50516;52.272;5.136;2023-08-24T13:53:37;14.95;;;8.15;;
64199;SDS011;50516;52.272;5.136;2023-08-24T13:56:02;12.10;;;8.10;;
64199;SDS011;50516;52.272;5.136;2023-08-24T13:58:27;11.25;;;8.18;;
64199;SDS011;50516;52.272;5.136;2023-08-24T14:00:56;16.20;;;12.40;;
64199;SDS011;50516;52.272;5.136;2023-08-24T14:03:22;11.77;;;7.95;;
64199;SDS011;50516;52.272;5.136;2023-08-24T14:05:47;14.60;;;7.93;;
64199;SDS011;50516;52.272;5.136;2023-08-24T14:08:14;16.50;;;7.40;;
64199;SDS011;50516;52.272;5.136;2023-08-24T14:10:40;11.00;;;8.05;;
64199;SDS011;50516;52.272;5.136;2023-08-24T14:13:05;15.45;;;11.35;;
64199;SDS011;50516;52.272;5.136;2023-08-24T14:15:30;12.32;;;8.60;;
64199;SDS011;50516;52.272;5.136;2023-08-24T14:17:56;16.05;;;10.07;;
64199;SDS011;50516;52.272;5.136;2023-08-24T14:20:21;11.02;;;7.88;;
64199;SDS011;50516;52.272;5.136;2023-08-24T14:22:46;14.35;;;9.30;;
64199;SDS011;50516;52.272;5.136;2023-08-24T14:25:13;16.63;;;10.95;;
64199;SDS011;50516;52.272;5.136;2023-08-24T14:27:39;13.82;;;7.95;;
64199;SDS011;50516;52.272;5.136;2023-08-24T14:30:06;17.80;;;13.48;;
64199;SDS011;50516;52.272;5.136;2023-08-24T14:32:33;17.48;;;13.35;;
64199;SDS011;50516;52.272;5.136;2023-08-24T14:34:58;17.80;;;10.43;;
64199;SDS011;50516;52.272;5.136;2023-08-24T14:37:24;13.57;;;11.35;;
64199;SDS011;50516;52.272;5.136;2023-08-24T14:39:49;13.05;;;8.93;;
64199;SDS011;50516;52.272;5.136;2023-08-24T14:42:14;12.93;;;8.00;;
64199;SDS011;50516;52.272;5.136;2023-08-24T14:44:40;13.40;;;9.00;;